Time;durP1;ratioP1;P1;durP2;ratioP2;P2;SDS_P1;SDS_P2;PMS_P1;PMS_P2;Temp;Humidity;BMP_temperature;BMP_pressure;BME280_temperature;BME280_humidity;BME280_pressure;Samples;Min_cycle;Max_cycle;Signal;HPM_P1;HPM_P2
2022/08/23 00:01:20;;;;;;;8.50;4.70;;;20.20;1.00;;;;;;5032901;28;20409;-81
2022/08/23 00:03:48;;;;;;;9.13;5.17;;;20.20;1.00;;;;;;5033700;28;20467;-81
2022/08/23 00:06:18;;;;;;;9.53;4.77;;;20.20;1.00;;;;;;5032076;28;20429;-81
2022/08/23 00:08:45;;;;;;;6.90;4.43;;;20.20;1.00;;;;;;5035684;28;20453;-82
2022/08/23 00:11:27;;;;;;;8.83;4.50;;;20.20;1.00;;;;;;5034301;28;20508;-81
2022/08/23 00:13:58;;;;;;;9.83;4.50;;;20.20;1.00;;;;;;5034287;28;20464;-82
2022/08/23 00:16:26;;;;;;;7.73;4.70;;;20.20;1.00;;;;;;5029815;28;21248;-81
2022/08/23 00:18:58;;;;;;;9.67;4.73;;;20.20;1.00;;;;;;5034459;28;20536;-81
2022/08/23 00:21:26;;;;;;;9.00;5.60;;;20.20;1.00;;;;;;5034564;28;20463;-80
2022/08/23 00:23:57;;;;;;;8.40;4.60;;;20.20;1.00;;;;;;5036875;28;20425;-79
2022/08/23 00:26:24;;;;;;;10.37;5.20;;;20.10;1.00;;;;;;5034590;28;20543;-80
2022/08/23 00:28:56;;;;;;;8.00;4.57;;;20.10;1.00;;;;;;5033036;28;20967;-80
2022/08/23 00:31:23;;;;;;;7.50;4.73;;;20.10;1.00;;;;;;5035219;28;20548;-79
2022/08/23 00:33:55;;;;;;;11.93;6.00;;;20.00;1.00;;;;;;5035426;28;20462;-80
2022/08/23 00:36:23;;;;;;;9.57;5.67;;;20.00;1.00;;;;;;5030216;28;20467;-81
2022/08/23 00:38:55;;;;;;;9.03;5.27;;;20.00;1.00;;;;;;5031399;28;20504;-81
2022/08/23 00:41:22;;;;;;;9.83;5.57;;;20.00;1.00;;;;;;5032561;28;20484;-79
2022/08/23 00:49:28;;;;;;;9.30;5.63;;;19.90;1.00;;;;;;5024854;28;20523;-80
2022/08/23 00:52:01;;;;;;;9.50;5.80;;;19.90;1.00;;;;;;5025665;28;20465;-79
2022/08/23 00:54:29;;;;;;;10.23;5.80;;;19.90;1.00;;;;;;5024490;28;20483;-80
2022/08/23 00:57:04;;;;;;;8.07;5.63;;;19.90;1.00;;;;;;5023670;28;20473;-80
2022/08/23 00:59:32;;;;;;;8.80;5.43;;;19.90;1.00;;;;;;5025180;28;20452;-81
2022/08/23 01:02:00;;;;;;;11.30;5.60;;;19.90;1.00;;;;;;5024922;28;20926;-80
2022/08/23 01:04:31;;;;;;;8.93;5.53;;;19.90;1.00;;;;;;5025732;28;21665;-80
2022/08/23 01:07:07;;;;;;;9.50;5.80;;;19.90;1.00;;;;;;5025115;28;20552;-80
2022/08/23 01:09:34;;;;;;;9.00;5.40;;;19.90;1.00;;;;;;5028631;28;20449;-80
2022/08/23 01:12:08;;;;;;;9.63;5.57;;;19.80;1.00;;;;;;5031855;28;20466;-81
2022/08/23 01:14:40;;;;;;;9.13;5.67;;;19.80;1.00;;;;;;5033343;28;20468;-81
2022/08/23 01:17:22;;;;;;;10.43;5.53;;;19.80;1.00;;;;;;5030106;28;20500;-80
2022/08/23 01:19:55;;;;;;;9.00;5.20;;;19.80;1.00;;;;;;5028195;28;21740;-81
2022/08/23 01:22:33;;;;;;;8.90;5.33;;;19.80;1.00;;;;;;5027072;28;20473;-80
2022/08/23 01:25:07;;;;;;;10.80;6.50;;;19.80;1.00;;;;;;5030538;28;21039;-80
2022/08/23 01:27:34;;;;;;;8.97;5.20;;;19.80;1.00;;;;;;5030794;28;20962;-80
2022/08/23 01:30:08;;;;;;;8.80;5.47;;;19.80;1.00;;;;;;5033957;28;20472;-82
2022/08/23 01:32:46;;;;;;;10.60;5.30;;;19.70;1.00;;;;;;5029799;28;20492;-80
2022/08/23 01:35:13;;;;;;;9.33;5.33;;;19.80;1.00;;;;;;5029017;28;20444;-80
2022/08/23 01:37:42;;;;;;;7.80;4.70;;;19.80;1.00;;;;;;5032461;28;20469;-81
2022/08/23 01:40:11;;;;;;;8.93;4.90;;;19.80;1.00;;;;;;5027786;28;20458;-81
2022/08/23 01:42:40;;;;;;;9.80;4.70;;;19.90;1.00;;;;;;5026538;28;21323;-80
2022/08/23 01:45:12;;;;;;;8.23;4.60;;;19.80;1.00;;;;;;5031350;28;20409;-80
2022/08/23 01:47:40;;;;;;;9.13;4.50;;;19.80;1.00;;;;;;5031553;28;20996;-80
2022/08/23 01:50:08;;;;;;;8.43;4.67;;;19.70;1.00;;;;;;5029739;28;20497;-81
2022/08/23 01:52:37;;;;;;;7.47;4.20;;;19.70;1.00;;;;;;5032367;28;21010;-79
2022/08/23 01:55:08;;;;;;;12.10;4.70;;;19.70;1.00;;;;;;5029353;28;20552;-80
2022/08/23 01:57:36;;;;;;;8.53;4.80;;;19.70;1.00;;;;;;5027964;28;20500;-80
2022/08/23 02:00:10;;;;;;;9.40;4.90;;;19.70;1.00;;;;;;5029455;28;20424;-81
2022/08/23 02:02:37;;;;;;;8.47;4.27;;;19.80;1.00;;;;;;5030590;28;20472;-80
2022/08/23 02:05:07;;;;;;;7.83;4.90;;;19.80;1.00;;;;;;5028537;28;20969;-81
2022/08/23 02:07:34;;;;;;;9.43;4.80;;;19.80;1.00;;;;;;5023639;28;20461;-81
2022/08/23 02:10:01;;;;;;;7.50;4.60;;;19.70;1.00;;;;;;5022802;28;20492;-81
2022/08/23 02:12:28;;;;;;;9.87;4.93;;;19.70;1.00;;;;;;5023924;28;20438;-80
2022/08/23 02:14:57;;;;;;;8.03;4.20;;;19.70;1.00;;;;;;5021962;28;21576;-81
2022/08/23 02:17:23;;;;;;;8.33;4.93;;;19.70;1.00;;;;;;5021925;28;21050;-81
2022/08/23 02:19:50;;;;;;;8.97;4.43;;;19.70;1.00;;;;;;5024560;28;20615;-81
2022/08/23 02:22:17;;;;;;;7.90;5.10;;;19.60;1.00;;;;;;5023336;28;20461;-81
2022/08/23 02:24:46;;;;;;;9.27;5.53;;;19.60;1.00;;;;;;5027035;28;20476;-81
2022/08/23 02:27:15;;;;;;;10.10;5.90;;;19.60;1.00;;;;;;5026309;28;20542;-81
2022/08/23 02:29:43;;;;;;;8.80;5.17;;;19.60;1.00;;;;;;5028251;28;20484;-81
2022/08/23 02:32:13;;;;;;;9.97;5.50;;;19.60;1.00;;;;;;5023219;28;20949;-81
2022/08/23 02:34:41;;;;;;;11.70;5.73;;;19.50;1.00;;;;;;5026288;28;20893;-81
2022/08/23 02:37:10;;;;;;;8.67;5.27;;;19.50;1.00;;;;;;5024681;28;20480;-81
2022/08/23 02:39:37;;;;;;;9.60;5.10;;;19.50;1.00;;;;;;5021817;28;20459;-81
2022/08/23 02:42:04;;;;;;;10.10;5.27;;;19.50;1.00;;;;;;5021597;28;20477;-80
2022/08/23 02:44:33;;;;;;;7.63;4.93;;;19.50;1.00;;;;;;5027128;28;20469;-80
2022/08/23 02:47:00;;;;;;;8.40;5.30;;;19.40;1.00;;;;;;5025870;28;20532;-81
2022/08/23 02:49:28;;;;;;;9.87;5.10;;;19.50;1.00;;;;;;5024320;28;20479;-81
2022/08/23 02:51:56;;;;;;;9.37;5.00;;;19.50;1.00;;;;;;5019977;28;20457;-81
2022/08/23 02:54:23;;;;;;;11.33;5.30;;;19.50;1.00;;;;;;5028760;28;20512;-81
2022/08/23 02:56:50;;;;;;;8.73;5.13;;;19.50;1.00;;;;;;5028075;28;20579;-81
2022/08/23 02:59:17;;;;;;;10.17;4.90;;;19.50;1.00;;;;;;5025683;28;20545;-81
2022/08/23 03:01:44;;;;;;;10.50;4.80;;;19.40;1.00;;;;;;5027203;28;20464;-81
2022/08/23 03:04:11;;;;;;;10.40;5.17;;;19.50;1.00;;;;;;5027374;28;20497;-81
2022/08/23 03:06:39;;;;;;;9.40;5.10;;;19.40;1.00;;;;;;5024241;28;20564;-81
2022/08/23 03:09:08;;;;;;;7.20;4.50;;;19.50;1.00;;;;;;5027398;28;20457;-81
2022/08/23 03:11:35;;;;;;;9.60;5.20;;;19.40;1.00;;;;;;5028077;28;21074;-82
2022/08/23 03:14:02;;;;;;;9.00;5.40;;;19.40;1.00;;;;;;5025541;28;21012;-81
2022/08/23 03:16:29;;;;;;;10.80;6.77;;;19.40;1.00;;;;;;5021498;28;20561;-82
2022/08/23 03:18:56;;;;;;;8.47;5.63;;;19.40;1.00;;;;;;5019931;28;20457;-81
2022/08/23 03:21:23;;;;;;;12.47;5.70;;;19.40;1.00;;;;;;5019367;28;20518;-80
2022/08/23 03:23:51;;;;;;;9.70;5.90;;;19.40;1.00;;;;;;5022160;28;20473;-81
2022/08/23 03:26:18;;;;;;;11.00;5.77;;;19.40;1.00;;;;;;5023786;28;20881;-82
2022/08/23 03:28:46;;;;;;;10.80;5.30;;;19.40;1.00;;;;;;5028423;28;20449;-81
2022/08/23 03:31:13;;;;;;;10.43;5.80;;;19.40;1.00;;;;;;5028038;28;20456;-81
2022/08/23 03:33:40;;;;;;;11.60;6.53;;;19.40;1.00;;;;;;5028371;28;20508;-82
2022/08/23 03:36:11;;;;;;;11.00;5.80;;;19.30;1.00;;;;;;5023356;28;20982;-81
2022/08/23 03:38:40;;;;;;;9.43;5.80;;;19.30;1.00;;;;;;5024139;28;20536;-80
2022/08/23 03:41:09;;;;;;;9.80;5.50;;;19.30;1.00;;;;;;5025979;28;20611;-80
2022/08/23 03:43:37;;;;;;;11.60;6.50;;;19.30;1.00;;;;;;5027533;28;20965;-81
2022/08/23 03:46:06;;;;;;;14.70;7.47;;;19.30;1.00;;;;;;5021752;28;20451;-82
2022/08/23 03:48:34;;;;;;;12.03;5.97;;;19.30;1.00;;;;;;5024164;28;20482;-81
2022/08/23 03:51:01;;;;;;;10.83;6.07;;;19.30;1.00;;;;;;5022303;28;20485;-81
2022/08/23 03:53:28;;;;;;;11.90;6.30;;;19.30;1.00;;;;;;5024118;28;20977;-81
2022/08/23 03:55:56;;;;;;;11.13;6.23;;;19.30;1.00;;;;;;5021145;28;22397;-81
2022/08/23 03:58:24;;;;;;;9.57;6.10;;;19.40;1.00;;;;;;5027200;28;20540;-81
2022/08/23 04:00:51;;;;;;;10.30;6.50;;;19.40;1.00;;;;;;5018582;28;20505;-81
2022/08/23 04:03:18;;;;;;;11.60;7.30;;;19.40;1.00;;;;;;5019469;28;20473;-82
2022/08/23 04:05:45;;;;;;;11.90;7.27;;;19.30;1.00;;;;;;5024130;28;20472;-82
2022/08/23 04:08:13;;;;;;;12.47;6.80;;;19.40;1.00;;;;;;5029836;28;20457;-82
2022/08/23 04:10:41;;;;;;;11.63;7.43;;;19.40;1.00;;;;;;5029794;28;20871;-82
2022/08/23 04:13:10;;;;;;;11.00;7.60;;;19.40;1.00;;;;;;5028644;28;20461;-82
2022/08/23 04:15:38;;;;;;;11.40;6.97;;;19.40;1.00;;;;;;5020898;28;26501;-83
2022/08/23 04:18:06;;;;;;;10.80;6.60;;;19.40;1.00;;;;;;5004491;28;20933;-81
2022/08/23 04:20:33;;;;;;;14.20;7.47;;;19.50;1.00;;;;;;5021745;28;20522;-79
2022/08/23 04:23:00;;;;;;;12.50;7.40;;;19.40;1.00;;;;;;5029517;28;20473;-78
2022/08/23 04:25:30;;;;;;;15.33;8.60;;;19.50;1.00;;;;;;5029354;28;20851;-79
2022/08/23 04:27:57;;;;;;;11.30;6.90;;;19.40;1.00;;;;;;5012560;28;20480;-78
2022/08/23 04:30:24;;;;;;;11.10;7.50;;;19.50;1.00;;;;;;5028004;28;20859;-79
2022/08/23 04:32:53;;;;;;;12.87;7.70;;;19.50;1.00;;;;;;5022933;28;20950;-79
2022/08/23 04:35:19;;;;;;;13.50;7.83;;;19.50;1.00;;;;;;5028779;28;20973;-80
2022/08/23 04:37:48;;;;;;;11.43;7.10;;;19.40;1.00;;;;;;5029628;28;20548;-79
2022/08/23 04:43:01;;;;;;;14.87;8.10;;;19.40;1.00;;;;;;5028908;28;20976;-78
2022/08/23 04:45:31;;;;;;;12.97;6.83;;;19.40;1.00;;;;;;5028509;28;20473;-77
2022/08/23 04:47:59;;;;;;;13.27;7.73;;;19.40;1.00;;;;;;5027464;28;20540;-76
2022/08/23 04:50:26;;;;;;;13.77;7.50;;;19.40;1.00;;;;;;5024070;28;20477;-73
2022/08/23 04:52:53;;;;;;;14.07;7.50;;;19.60;1.00;;;;;;5028495;28;20954;-74
2022/08/23 04:55:19;;;;;;;11.20;6.87;;;19.90;1.00;;;;;;5024212;28;20488;-74
2022/08/23 04:57:46;;;;;;;11.00;6.67;;;20.20;1.00;;;;;;5025289;28;20901;-74
2022/08/23 05:00:15;;;;;;;10.80;5.80;;;20.50;1.00;;;;;;5016276;28;20914;-73
2022/08/23 05:02:42;;;;;;;9.60;5.70;;;20.70;1.00;;;;;;5027896;28;20464;-73
2022/08/23 05:05:11;;;;;;;13.00;7.00;;;20.80;1.00;;;;;;5021026;28;20481;-72
2022/08/23 05:07:39;;;;;;;10.80;6.50;;;21.00;1.00;;;;;;5022417;28;20999;-73
2022/08/23 05:10:07;;;;;;;11.00;6.03;;;21.00;1.00;;;;;;5021944;28;20465;-72
2022/08/23 05:12:34;;;;;;;11.60;7.50;;;21.00;1.00;;;;;;5023933;28;20980;-73
2022/08/23 05:15:01;;;;;;;11.13;6.73;;;21.00;1.00;;;;;;5020544;28;20491;-72
2022/08/23 05:17:28;;;;;;;14.13;6.80;;;21.00;1.00;;;;;;5022076;28;20906;-73
2022/08/23 05:19:54;;;;;;;8.97;5.73;;;21.00;1.00;;;;;;5019413;28;20472;-73
2022/08/23 05:22:23;;;;;;;9.33;5.70;;;21.10;1.00;;;;;;5019883;28;20473;-73
2022/08/23 05:24:49;;;;;;;12.10;5.60;;;21.20;1.00;;;;;;5016273;28;20495;-73
2022/08/23 05:27:17;;;;;;;10.00;6.17;;;21.30;1.00;;;;;;5017170;28;20465;-72
2022/08/23 05:29:44;;;;;;;10.47;6.00;;;21.30;1.00;;;;;;5021134;28;20532;-72
2022/08/23 05:32:11;;;;;;;10.10;5.30;;;21.30;1.00;;;;;;5024621;28;21180;-73
2022/08/23 05:34:37;;;;;;;10.87;5.20;;;21.40;1.00;;;;;;5019798;28;20465;-73
2022/08/23 05:37:04;;;;;;;11.30;5.50;;;21.50;1.00;;;;;;5018413;28;20822;-73
2022/08/23 05:39:32;;;;;;;12.43;6.13;;;21.50;1.00;;;;;;5032396;28;20467;-74
2022/08/23 05:41:59;;;;;;;11.47;6.23;;;21.50;1.00;;;;;;5024088;28;20465;-73
2022/08/23 05:44:26;;;;;;;11.33;7.00;;;21.50;1.00;;;;;;5031416;28;20469;-74
2022/08/23 05:46:53;;;;;;;12.53;6.50;;;21.60;1.00;;;;;;5029981;28;20524;-72
2022/08/23 05:49:20;;;;;;;10.70;7.30;;;21.50;1.00;;;;;;5029783;28;20463;-73
2022/08/23 05:51:47;;;;;;;21.27;19.37;;;21.50;1.00;;;;;;5023986;28;20461;-75
2022/08/23 05:54:14;;;;;;;13.57;6.90;;;21.50;1.00;;;;;;5026559;28;20668;-72
2022/08/23 05:56:43;;;;;;;10.53;5.77;;;21.50;1.00;;;;;;5025159;28;20458;-72
2022/08/23 05:59:16;;;;;;;10.37;6.30;;;21.50;1.00;;;;;;5026665;28;20461;-72
2022/08/23 06:01:43;;;;;;;10.03;5.87;;;21.50;1.00;;;;;;5022961;28;20454;-73
2022/08/23 06:04:11;;;;;;;10.37;5.60;;;21.40;1.00;;;;;;5023143;28;20913;-74
2022/08/23 06:06:40;;;;;;;13.70;6.57;;;21.40;1.00;;;;;;5024590;28;20466;-72
2022/08/23 06:09:11;;;;;;;9.70;6.10;;;21.40;1.00;;;;;;5019973;28;20528;-74
2022/08/23 06:11:39;;;;;;;13.73;6.77;;;21.30;1.00;;;;;;5021789;28;20457;-73
2022/08/23 06:14:08;;;;;;;13.07;7.30;;;21.30;1.00;;;;;;5017907;28;20469;-75
2022/08/23 06:16:38;;;;;;;13.23;7.20;;;21.30;1.00;;;;;;5017088;28;20467;-75
2022/08/23 06:19:05;;;;;;;10.23;6.60;;;21.30;1.00;;;;;;5022424;28;20598;-74
2022/08/23 06:21:33;;;;;;;10.60;7.57;;;21.40;1.00;;;;;;5024311;28;20463;-75
2022/08/23 06:24:00;;;;;;;15.37;7.03;;;21.50;1.00;;;;;;5030640;28;20476;-72
2022/08/23 06:26:31;;;;;;;11.10;6.07;;;21.60;1.00;;;;;;5017590;28;20492;-71
2022/08/23 06:29:01;;;;;;;9.13;5.57;;;21.70;1.00;;;;;;5012830;28;20469;-72
2022/08/23 06:31:45;;;;;;;14.10;5.90;;;21.80;1.00;;;;;;5020696;28;20466;-72
2022/08/23 06:34:16;;;;;;;11.33;6.13;;;21.90;1.00;;;;;;5019101;28;20480;-71
2022/08/23 06:36:43;;;;;;;9.63;4.60;;;22.00;1.00;;;;;;5024182;28;20461;-72
2022/08/23 06:39:10;;;;;;;10.10;5.60;;;22.10;1.00;;;;;;5020204;28;21230;-72
2022/08/23 06:41:38;;;;;;;13.00;6.30;;;22.20;1.00;;;;;;5018517;28;20511;-72
2022/08/23 06:44:08;;;;;;;13.33;6.50;;;22.20;1.00;;;;;;5020616;28;20483;-71
2022/08/23 06:46:37;;;;;;;8.40;5.10;;;22.20;1.00;;;;;;5023962;28;20619;-73
2022/08/23 06:49:05;;;;;;;10.30;6.33;;;22.30;1.00;;;;;;5021399;28;20464;-72
2022/08/23 06:51:34;;;;;;;14.33;6.77;;;22.30;1.00;;;;;;5018425;28;20472;-73
2022/08/23 06:54:04;;;;;;;11.30;5.73;;;22.30;1.00;;;;;;5019802;28;20483;-72
2022/08/23 06:56:31;;;;;;;9.70;6.13;;;22.40;1.00;;;;;;5023657;28;21231;-72
2022/08/23 06:58:59;;;;;;;9.00;5.13;;;22.40;1.00;;;;;;5022321;28;20470;-72
2022/08/23 07:01:36;;;;;;;11.47;6.33;;;22.60;1.00;;;;;;5019205;28;22022;-77
2022/08/23 07:04:08;;;;;;;11.10;6.60;;;22.60;1.00;;;;;;5020984;28;20477;-80
2022/08/23 07:06:35;;;;;;;10.30;6.27;;;22.60;1.00;;;;;;5021519;28;20570;-79
2022/08/23 07:09:12;;;;;;;11.70;5.77;;;22.60;1.00;;;;;;5025257;28;20841;-78
2022/08/23 07:11:40;;;;;;;25.07;22.40;;;22.70;1.00;;;;;;5019416;28;20915;-79
2022/08/23 07:14:15;;;;;;;10.57;6.23;;;22.70;1.00;;;;;;5021706;28;20465;-79
2022/08/23 07:16:49;;;;;;;13.70;6.93;;;22.70;1.00;;;;;;5022471;28;20456;-79
2022/08/23 07:19:20;;;;;;;9.80;5.60;;;22.70;1.00;;;;;;5010831;28;20468;-80
2022/08/23 07:21:50;;;;;;;12.90;6.40;;;22.80;1.00;;;;;;5018284;28;20965;-79
2022/08/23 07:24:20;;;;;;;10.00;5.43;;;22.80;1.00;;;;;;5022487;28;20466;-78
2022/08/23 07:26:50;;;;;;;8.27;5.10;;;22.80;1.00;;;;;;5023225;28;20479;-80
2022/08/23 07:29:18;;;;;;;10.00;5.40;;;22.90;1.00;;;;;;5018642;28;20487;-79
2022/08/23 07:31:50;;;;;;;11.17;6.00;;;22.90;1.00;;;;;;5019935;28;20455;-79
2022/08/23 07:34:20;;;;;;;11.17;5.80;;;23.00;1.00;;;;;;5022891;28;20642;-83
2022/08/23 07:36:48;;;;;;;13.20;6.77;;;23.00;1.00;;;;;;5026209;28;20598;-77
2022/08/23 07:39:17;;;;;;;9.90;5.10;;;23.20;1.00;;;;;;5018294;28;20485;-77
2022/08/23 07:41:46;;;;;;;9.33;4.90;;;23.30;1.00;;;;;;5026708;28;20460;-78
2022/08/23 07:44:14;;;;;;;8.87;4.53;;;23.40;1.00;;;;;;5025130;28;20485;-79
2022/08/23 07:46:43;;;;;;;12.40;6.20;;;23.60;1.00;;;;;;5026869;28;20471;-79
2022/08/23 07:49:11;;;;;;;10.67;4.87;;;23.70;1.00;;;;;;5031262;28;20460;-78
2022/08/23 07:51:45;;;;;;;9.70;5.33;;;23.80;1.00;;;;;;5030682;28;20481;-78
2022/08/23 07:54:13;;;;;;;9.53;4.63;;;23.80;1.00;;;;;;5034826;28;20468;-78
2022/08/23 07:56:40;;;;;;;11.97;9.37;;;23.80;1.00;;;;;;5030035;28;20540;-78
2022/08/23 07:59:10;;;;;;;11.23;6.77;;;23.90;1.00;;;;;;5028948;28;21044;-83
2022/08/23 08:01:38;;;;;;;12.37;6.10;;;23.90;1.00;;;;;;5029369;28;20592;-78
2022/08/23 08:04:11;;;;;;;10.33;5.10;;;24.00;1.00;;;;;;5028570;28;20555;-79
2022/08/23 08:06:42;;;;;;;9.13;4.97;;;24.00;1.00;;;;;;5028107;28;20468;-78
2022/08/23 08:09:11;;;;;;;9.87;5.57;;;23.90;1.00;;;;;;5029823;28;20457;-79
2022/08/23 08:11:41;;;;;;;10.13;4.97;;;24.00;1.00;;;;;;5025667;28;21221;-79
2022/08/23 08:14:09;;;;;;;8.80;4.60;;;24.00;1.00;;;;;;5028565;28;20462;-80
2022/08/23 08:16:38;;;;;;;10.80;6.03;;;24.00;1.00;;;;;;5025790;28;20523;-78
2022/08/23 08:19:08;;;;;;;9.70;5.23;;;24.20;1.00;;;;;;5023717;28;20473;-79
2022/08/23 08:21:36;;;;;;;10.60;5.83;;;24.30;1.00;;;;;;5025423;28;20500;-78
2022/08/23 08:24:06;;;;;;;12.77;5.30;;;24.30;1.00;;;;;;5028228;28;20445;-79
2022/08/23 08:26:33;;;;;;;11.60;5.60;;;24.50;1.00;;;;;;5030744;28;20457;-80
2022/08/23 08:29:00;;;;;;;11.67;4.70;;;24.70;1.00;;;;;;5022879;28;20605;-79
2022/08/23 08:31:28;;;;;;;9.57;5.10;;;25.00;1.00;;;;;;5024476;28;20462;-79
2022/08/23 08:33:55;;;;;;;9.83;4.43;;;25.20;1.00;;;;;;5024270;28;20502;-78
2022/08/23 08:36:32;;;;;;;13.30;5.30;;;25.40;1.00;;;;;;5025752;28;20916;-79
2022/08/23 08:38:59;;;;;;;10.10;6.37;;;25.40;1.00;;;;;;5022281;28;20971;-78
2022/08/23 08:41:48;;;;;;;11.57;5.03;;;25.40;1.00;;;;;;5022418;28;20462;-79
2022/08/23 08:44:27;;;;;;;13.53;6.50;;;25.30;1.00;;;;;;5030363;28;20969;-81
2022/08/23 08:46:56;;;;;;;10.10;5.00;;;25.50;1.00;;;;;;5026124;28;20452;-80
2022/08/23 08:49:38;;;;;;;17.40;5.93;;;25.40;1.00;;;;;;5026379;28;20481;-79
2022/08/23 08:52:16;;;;;;;10.90;4.73;;;25.50;1.00;;;;;;5031091;28;20978;-80
2022/08/23 08:54:48;;;;;;;9.07;5.20;;;25.70;1.00;;;;;;5032904;28;20572;-80
2022/08/23 08:57:20;;;;;;;8.87;4.70;;;25.70;1.00;;;;;;5029330;28;20503;-79
2022/08/23 08:59:55;;;;;;;9.60;5.10;;;25.80;1.00;;;;;;5025946;28;21051;-79
2022/08/23 09:02:24;;;;;;;8.57;4.20;;;25.90;1.00;;;;;;5023723;28;20461;-79
2022/08/23 09:04:51;;;;;;;9.27;4.97;;;25.80;1.00;;;;;;5026128;28;20465;-79
2022/08/23 09:07:30;;;;;;;10.73;4.83;;;25.70;1.00;;;;;;5028831;28;20467;-81
2022/08/23 09:10:29;;;;;;;18.57;16.63;;;25.70;1.00;;;;;;5024498;28;20489;-79
2022/08/23 09:13:09;;;;;;;13.63;5.23;;;25.70;1.00;;;;;;5009329;28;20489;-79
2022/08/23 09:15:45;;;;;;;10.30;4.73;;;25.80;1.00;;;;;;5022935;28;20477;-80
2022/08/23 09:18:14;;;;;;;8.47;4.23;;;25.80;1.00;;;;;;5023991;28;20445;-77
2022/08/23 09:20:50;;;;;;;10.10;4.63;;;25.80;1.00;;;;;;5020548;28;20524;-78
2022/08/23 09:23:21;;;;;;;11.90;4.90;;;25.80;1.00;;;;;;5025870;28;21438;-77
2022/08/23 09:25:51;;;;;;;7.30;4.13;;;25.80;1.00;;;;;;5028833;28;20856;-78
2022/08/23 09:28:20;;;;;;;9.10;5.10;;;25.60;1.00;;;;;;5026389;28;20999;-77
2022/08/23 09:30:53;;;;;;;9.30;4.10;;;25.60;1.00;;;;;;5030244;28;20460;-78
2022/08/23 09:33:22;;;;;;;8.60;4.37;;;25.80;1.00;;;;;;5024552;28;20918;-78
2022/08/23 09:36:15;;;;;;;10.03;3.83;;;25.70;1.00;;;;;;5027454;28;20486;-78
2022/08/23 09:38:52;;;;;;;10.03;4.30;;;25.80;1.00;;;;;;5026413;28;20484;-78
2022/08/23 09:41:23;;;;;;;7.60;3.50;;;25.70;1.00;;;;;;5028109;28;20943;-79
2022/08/23 09:43:52;;;;;;;9.70;4.83;;;25.80;1.00;;;;;;5025510;28;20519;-78
2022/08/23 09:46:28;;;;;;;8.17;4.27;;;25.80;1.00;;;;;;5024052;28;21371;-79
2022/08/23 09:48:57;;;;;;;8.57;4.38;;;25.80;1.00;;;;;;5027802;28;20502;-77
2022/08/23 09:51:31;;;;;;;7.80;3.30;;;25.80;1.00;;;;;;5029645;28;20241;-78
2022/08/23 09:54:08;;;;;;;8.27;4.10;;;25.80;1.00;;;;;;5030669;28;20548;-81
2022/08/23 09:56:38;;;;;;;9.23;4.20;;;25.80;1.00;;;;;;5024259;28;20469;-78
2022/08/23 09:59:27;;;;;;;9.17;4.57;;;25.80;1.00;;;;;;5026850;28;20527;-80
2022/08/23 10:01:56;;;;;;;10.63;4.60;;;25.80;1.00;;;;;;5021768;28;20469;-79
2022/08/23 10:04:29;;;;;;;7.73;3.50;;;25.90;1.00;;;;;;5026709;28;20421;-80
2022/08/23 10:06:57;;;;;;;8.10;4.00;;;26.10;1.00;;;;;;5023631;28;20476;-77
2022/08/23 10:09:28;;;;;;;8.03;3.80;;;26.20;1.00;;;;;;5032513;28;20493;-78
2022/08/23 10:11:57;;;;;;;8.80;4.37;;;26.20;1.00;;;;;;5031311;28;20471;-79
2022/08/23 10:14:28;;;;;;;8.60;4.90;;;26.30;1.00;;;;;;5027101;28;20472;-77
2022/08/23 10:17:06;;;;;;;9.30;4.50;;;26.40;1.00;;;;;;5025324;28;20505;-78
2022/08/23 10:19:42;;;;;;;8.60;4.77;;;26.60;1.00;;;;;;5030584;28;20975;-79
2022/08/23 10:22:17;;;;;;;7.87;4.20;;;26.80;1.00;;;;;;5030815;28;20540;-77
2022/08/23 10:24:50;;;;;;;10.13;5.40;;;26.90;1.00;;;;;;5029669;28;20531;-78
2022/08/23 10:30:16;;;;;;;10.20;7.20;;;27.00;1.00;;;;;;5030833;28;20456;-78
2022/08/23 10:33:01;;;;;;;8.60;5.70;;;27.20;1.00;;;;;;5031246;28;20594;-81
2022/08/23 10:35:34;;;;;;;12.10;5.37;;;27.40;1.00;;;;;;5031491;28;20461;-78
2022/08/23 10:38:14;;;;;;;7.43;4.57;;;27.50;1.00;;;;;;5028841;28;20492;-78
2022/08/23 10:40:53;;;;;;;10.40;5.40;;;27.80;1.00;;;;;;5026198;28;21244;-78
2022/08/23 10:43:31;;;;;;;8.43;5.30;;;28.00;1.00;;;;;;5022921;28;20532;-78
2022/08/23 10:46:02;;;;;;;7.37;5.47;;;28.10;1.00;;;;;;5024909;28;20465;-79
2022/08/23 10:48:34;;;;;;;9.13;6.07;;;28.00;1.00;;;;;;5027744;28;20535;-78
2022/08/23 10:51:09;;;;;;;9.00;5.80;;;27.90;1.00;;;;;;5028063;28;20461;-78
2022/08/23 10:53:44;;;;;;;14.57;7.23;;;27.90;1.00;;;;;;5024928;28;20858;-77
2022/08/23 10:56:16;;;;;;;10.50;5.63;;;28.00;1.00;;;;;;5024087;28;20464;-78
2022/08/23 10:58:46;;;;;;;8.57;5.30;;;28.00;1.00;;;;;;5044825;28;20479;-80
2022/08/23 11:01:19;;;;;;;9.00;5.40;;;28.00;1.00;;;;;;5019369;28;20541;-78
2022/08/23 11:03:57;;;;;;;11.50;6.50;;;27.80;1.00;;;;;;5022981;28;20623;-77
2022/08/23 11:06:44;;;;;;;9.93;5.87;;;28.00;1.00;;;;;;5023450;28;21031;-79
2022/08/23 11:09:46;;;;;;;10.07;5.40;;;28.30;1.00;;;;;;5020211;28;21166;-80
2022/08/23 11:12:21;;;;;;;9.37;5.80;;;28.50;1.00;;;;;;5013259;28;20513;-79
2022/08/23 11:15:09;;;;;;;8.37;5.50;;;28.60;1.00;;;;;;5017595;28;20555;-79
2022/08/23 11:17:52;;;;;;;10.40;7.37;;;28.70;1.00;;;;;;5009366;28;20532;-79
2022/08/23 11:20:52;;;;;;;10.57;5.07;;;28.70;1.00;;;;;;5032483;28;20546;-80
2022/08/23 11:23:47;;;;;;;9.20;5.60;;;28.80;1.00;;;;;;5027407;28;20445;-81
2022/08/23 11:27:04;;;;;;;8.10;4.37;;;29.00;1.00;;;;;;5029729;28;20459;-84
2022/08/23 11:29:34;;;;;;;7.23;4.00;;;29.20;1.00;;;;;;5028413;28;20505;-80
2022/08/23 11:32:21;;;;;;;8.90;4.30;;;29.60;1.00;;;;;;5028855;28;20915;-81
2022/08/23 11:34:59;;;;;;;7.37;4.70;;;29.50;1.00;;;;;;5031339;28;20458;-80
2022/08/23 11:37:50;;;;;;;7.60;3.97;;;29.30;1.00;;;;;;5029141;28;20457;-80
2022/08/23 11:40:39;;;;;;;7.10;4.63;;;29.10;1.00;;;;;;5025119;28;20453;-80
2022/08/23 11:43:20;;;;;;;10.83;5.43;;;28.90;1.00;;;;;;5026301;28;20473;-80
2022/08/23 11:45:48;;;;;;;8.40;4.80;;;28.60;1.00;;;;;;5029842;28;20497;-79
2022/08/23 11:48:25;;;;;;;8.63;4.60;;;28.40;1.00;;;;;;5033661;28;20572;-80
2022/08/23 11:51:12;;;;;;;7.90;4.43;;;28.40;1.00;;;;;;5031186;28;21187;-82
2022/08/23 11:54:05;;;;;;;10.87;5.93;;;28.30;1.00;;;;;;5033376;28;20479;-79
2022/08/23 11:57:01;;;;;;;9.30;5.37;;;28.60;1.00;;;;;;5029123;28;20532;-80
2022/08/23 12:00:02;;;;;;;8.70;4.93;;;28.90;1.00;;;;;;5030534;28;20537;-83
2022/08/23 12:02:40;;;;;;;6.47;4.67;;;29.00;1.00;;;;;;5032326;28;20968;-81
2022/08/23 12:05:31;;;;;;;8.00;4.73;;;30.00;1.00;;;;;;5029447;28;20465;-80
2022/08/23 12:08:32;;;;;;;6.60;4.50;;;31.30;1.00;;;;;;5030439;28;20536;-80
2022/08/23 12:11:09;;;;;;;6.40;4.07;;;32.80;1.00;;;;;;5027562;28;20544;-84
2022/08/23 12:14:00;;;;;;;9.33;5.33;;;34.50;1.00;;;;;;5029401;28;20466;-80
2022/08/23 12:16:40;;;;;;;8.33;3.80;;;35.80;1.00;;;;;;5024541;28;21272;-79
2022/08/23 12:19:10;;;;;;;6.87;3.70;;;36.70;1.00;;;;;;5024808;28;20472;-81
2022/08/23 12:21:48;;;;;;;10.20;3.80;;;37.10;1.00;;;;;;5023073;28;20535;-82
2022/08/23 12:24:28;;;;;;;8.37;3.80;;;36.90;1.00;;;;;;5029678;28;20472;-81
2022/08/23 12:27:06;;;;;;;7.23;3.07;;;36.20;1.00;;;;;;5023389;28;20487;-81
2022/08/23 12:29:46;;;;;;;6.77;3.63;;;35.50;1.00;;;;;;5029091;28;20876;-80
2022/08/23 12:32:19;;;;;;;8.67;3.70;;;35.50;1.00;;;;;;5021566;28;20444;-81
2022/08/23 12:35:13;;;;;;;7.30;3.73;;;35.50;1.00;;;;;;5026750;28;20425;-80
2022/08/23 12:37:48;;;;;;;8.87;3.20;;;35.60;1.00;;;;;;5025602;28;20569;-80
2022/08/23 12:40:34;;;;;;;8.97;5.63;;;35.80;1.00;;;;;;5025520;28;20467;-80
2022/08/23 12:43:17;;;;;;;7.10;3.50;;;35.90;1.00;;;;;;5022755;28;20915;-80
2022/08/23 12:45:48;;;;;;;6.57;2.97;;;37.50;1.00;;;;;;5025654;28;20509;-80
2022/08/23 12:48:19;;;;;;;5.70;3.00;;;38.30;1.00;;;;;;5023050;28;20655;-79
2022/08/23 12:50:54;;;;;;;6.13;2.70;;;37.80;1.00;;;;;;5026031;28;20467;-79
2022/08/23 12:53:30;;;;;;;4.80;2.50;;;38.40;1.00;;;;;;5025887;28;20425;-79
2022/08/23 12:56:17;;;;;;;5.50;3.00;;;38.30;1.00;;;;;;5027000;28;20476;-78
2022/08/23 12:58:49;;;;;;;6.67;3.10;;;37.90;1.00;;;;;;5030146;28;20449;-83
2022/08/23 13:01:20;;;;;;;7.27;3.30;;;37.90;1.00;;;;;;5025056;28;20457;-79
2022/08/23 13:03:54;;;;;;;8.37;3.40;;;37.80;1.00;;;;;;5027228;28;21632;-84
2022/08/23 13:06:27;;;;;;;4.97;2.30;;;38.90;1.00;;;;;;5022885;28;20417;-81
2022/08/23 13:09:00;;;;;;;6.20;2.57;;;40.10;1.00;;;;;;5018958;28;20485;-82
2022/08/23 13:11:32;;;;;;;7.07;3.30;;;41.50;1.00;;;;;;5022324;28;20902;-81
2022/08/23 13:13:59;;;;;;;5.17;2.73;;;42.40;1.00;;;;;;5025370;28;20441;-80
2022/08/23 13:16:31;;;;;;;4.80;2.37;;;42.90;1.00;;;;;;5023857;28;20425;-80
2022/08/23 13:19:16;;;;;;;4.70;2.27;;;43.30;1.00;;;;;;5020217;28;20479;-81
2022/08/23 13:22:09;;;;;;;5.00;1.97;;;43.10;1.00;;;;;;5021615;28;20536;-80
2022/08/23 13:24:38;;;;;;;4.20;2.03;;;42.80;1.00;;;;;;5022692;28;20464;-80
2022/08/23 13:27:19;;;;;;;4.43;2.10;;;42.70;1.00;;;;;;5026775;28;20456;-78
2022/08/23 13:29:54;;;;;;;6.57;2.67;;;42.40;1.00;;;;;;5023150;28;20477;-82